Time;durP1;ratioP1;P1;durP2;ratioP2;P2;SDS_P1;SDS_P2;PMS_P1;PMS_P2;Temp;Humidity;BMP_temperature;BMP_pressure;BME280_temperature;BME280_humidity;BME280_pressure;Samples;Min_cycle;Max_cycle;Signal;HPM_P1;HPM_P2
2023/10/06 00:00:52;;;;;;;0.30;0.30;;;;;;;15.79;100.00;101003.22;5041706;28;20036;-74
2023/10/06 00:03:20;;;;;;;0.20;0.20;;;;;;;15.78;100.00;100996.16;5041600;28;20041;-75
2023/10/06 00:05:49;;;;;;;0.20;0.20;;;;;;;15.79;100.00;101002.41;5074497;28;20021;-75
2023/10/06 00:08:32;;;;;;;0.30;0.30;;;;;;;15.88;100.00;101003.03;5057549;28;20086;-74
2023/10/06 00:11:10;;;;;;;0.30;0.30;;;;;;;15.87;100.00;101001.38;5060284;28;20036;-74
2023/10/06 00:13:37;;;;;;;0.25;0.25;;;;;;;15.87;100.00;101004.94;5074629;28;20483;-75
2023/10/06 00:16:07;;;;;;;0.30;0.30;;;;;;;15.87;100.00;101010.34;5074208;28;20396;-74
2023/10/06 00:18:37;;;;;;;0.30;0.30;;;;;;;15.87;100.00;101004.09;5057947;28;20050;-75
2023/10/06 00:21:05;;;;;;;0.20;0.20;;;;;;;15.87;100.00;101004.09;5057791;28;20133;-74
2023/10/06 00:23:31;;;;;;;0.20;0.20;;;;;;;15.88;100.00;101005.75;5057800;28;20453;-74
2023/10/06 00:25:57;;;;;;;0.30;0.30;;;;;;;15.89;100.00;101005.56;5057698;28;20485;-74
2023/10/06 00:28:32;;;;;;;0.20;0.20;;;;;;;15.81;100.00;100995.75;5057287;28;20387;-75
2023/10/06 00:31:06;;;;;;;0.20;0.20;;;;;;;15.91;100.00;101011.63;5057452;28;20485;-74
2023/10/06 00:33:32;;;;;;;0.30;0.30;;;;;;;15.92;100.00;101007.03;5042208;28;20032;-74
2023/10/06 00:35:59;;;;;;;0.20;0.20;;;;;;;15.96;100.00;101011.84;5041112;28;20043;-75
2023/10/06 00:38:25;;;;;;;0.20;0.20;;;;;;;15.97;100.00;101018.09;5040882;28;20464;-74
2023/10/06 00:40:54;;;;;;;0.20;0.20;;;;;;;15.96;100.00;101019.16;5057591;28;20123;-74
2023/10/06 00:43:43;;;;;;;0.20;0.20;;;;;;;15.93;100.00;101019.53;5074161;28;20040;-74
2023/10/06 00:46:14;;;;;;;0.30;0.30;;;;;;;15.95;100.00;101017.47;5058771;28;20029;-74
2023/10/06 00:48:40;;;;;;;0.30;0.30;;;;;;;15.95;100.00;101014.75;5040277;28;20482;-74
2023/10/06 00:51:19;;;;;;;0.30;0.30;;;;;;;15.95;100.00;101022.88;5057050;28;20036;-75
2023/10/06 00:54:03;;;;;;;0.25;0.25;;;;;;;15.95;100.00;101022.88;5060253;28;20036;-74
2023/10/06 00:56:34;;;;;;;0.30;0.30;;;;;;;15.95;100.00;101022.88;5040504;28;20356;-75
2023/10/06 00:59:04;;;;;;;0.20;0.20;;;;;;;15.94;100.00;101024.78;5040232;28;20463;-75
2023/10/06 01:01:30;;;;;;;0.20;0.20;;;;;;;15.94;100.00;101026.66;5057265;28;20036;-75
2023/10/06 01:04:01;;;;;;;0.20;0.20;;;;;;;15.97;100.00;101032.50;5057036;28;20467;-75
2023/10/06 01:06:34;;;;;;;0.30;0.30;;;;;;;15.96;100.00;101030.00;5057832;28;20055;-75
2023/10/06 01:09:09;;;;;;;0.30;0.30;;;;;;;16.01;100.00;101025.63;5057341;28;20459;-75
2023/10/06 01:11:45;;;;;;;0.30;0.30;;;;;;;16.03;100.00;101036.25;5041653;28;20055;-74
2023/10/06 01:14:11;;;;;;;0.25;0.25;;;;;;;16.03;100.00;101028.13;5073029;28;20035;-74
2023/10/06 01:16:38;;;;;;;0.25;0.25;;;;;;;16.03;100.00;101036.25;5056254;28;20024;-74
2023/10/06 01:19:16;;;;;;;0.20;0.20;;;;;;;16.05;100.00;101028.75;5040002;28;20063;-74
2023/10/06 01:21:47;;;;;;;0.30;0.30;;;;;;;16.07;100.00;101028.56;5041894;28;20135;-74
2023/10/06 01:24:15;;;;;;;0.30;0.30;;;;;;;16.06;100.00;101035.84;5057106;28;20044;-74
2023/10/06 01:26:42;;;;;;;0.30;0.30;;;;;;;16.06;100.00;101022.28;5072839;28;20033;-74
2023/10/06 01:29:15;;;;;;;0.25;0.25;;;;;;;16.05;100.00;101029.59;5056518;28;20046;-74
2023/10/06 01:31:41;;;;;;;0.30;0.30;;;;;;;16.04;100.00;101027.94;5040709;28;20127;-74
2023/10/06 01:34:08;;;;;;;0.30;0.30;;;;;;;16.04;100.00;101032.53;5039807;28;20078;-74
2023/10/06 01:36:40;;;;;;;0.22;0.22;;;;;;;16.02;100.00;101034.59;5040029;28;20306;-74
2023/10/06 01:39:17;;;;;;;0.20;0.20;;;;;;;16.03;100.00;101036.25;5056432;28;20072;-74
2023/10/06 01:41:46;;;;;;;0.30;0.30;;;;;;;16.08;100.00;101033.75;5057307;28;20081;-74
2023/10/06 01:44:16;;;;;;;0.25;0.25;;;;;;;16.10;100.00;101026.25;5040493;28;20039;-74
2023/10/06 01:46:44;;;;;;;0.30;0.30;;;;;;;16.09;100.00;101027.31;5039357;28;20480;-74
2023/10/06 01:49:14;;;;;;;0.20;0.20;;;;;;;16.09;100.00;101018.31;5039760;28;20040;-74
2023/10/06 01:51:44;;;;;;;0.30;0.30;;;;;;;16.12;100.00;101024.19;5055917;28;20032;-74
2023/10/06 01:54:14;;;;;;;0.30;0.30;;;;;;;16.12;100.00;101018.75;5057318;28;20067;-74
2023/10/06 01:56:42;;;;;;;0.30;0.30;;;;;;;16.17;100.00;101018.16;5040187;28;20032;-74
2023/10/06 01:59:15;;;;;;;0.20;0.20;;;;;;;16.20;100.00;101032.13;5039766;28;20064;-74
2023/10/06 02:01:41;;;;;;;0.30;0.30;;;;;;;16.20;100.00;101026.72;5039817;28;20036;-74
2023/10/06 02:04:18;;;;;;;0.40;0.40;;;;;;;16.20;100.00;101024.00;5039415;28;20039;-74
2023/10/06 02:06:45;;;;;;;0.30;0.30;;;;;;;16.20;100.00;101025.88;5072465;28;20383;-75
2023/10/06 02:09:20;;;;;;;0.22;0.22;;;;;;;16.18;100.00;101015.22;5055055;28;20105;-74
2023/10/06 02:11:55;;;;;;;0.30;0.30;;;;;;;16.14;100.00;101021.25;5039879;28;20037;-74
2023/10/06 02:14:20;;;;;;;0.30;0.30;;;;;;;16.18;100.00;101012.50;5040159;28;20036;-74
2023/10/06 02:16:46;;;;;;;0.30;0.30;;;;;;;16.22;100.00;101034.63;5039164;28;20028;-75
2023/10/06 02:19:18;;;;;;;0.32;0.32;;;;;;;16.17;100.00;101018.97;5072302;28;20032;-74
2023/10/06 02:22:06;;;;;;;0.20;0.20;;;;;;;16.18;100.00;101017.94;5057151;28;20040;-74
2023/10/06 02:24:32;;;;;;;0.30;0.30;;;;;;;16.19;100.00;101030.44;5039836;28;20471;-74
2023/10/06 02:27:00;;;;;;;0.30;0.30;;;;;;;16.20;100.00;101040.28;5072014;28;20386;-74
2023/10/06 02:29:26;;;;;;;0.32;0.32;;;;;;;16.19;100.00;101038.56;5055766;28;20029;-74
2023/10/06 02:32:00;;;;;;;0.20;0.20;;;;;;;16.16;100.00;101036.28;5056063;28;20036;-74
2023/10/06 02:34:35;;;;;;;0.30;0.30;;;;;;;16.18;100.00;101036.91;5056664;28;20043;-75
2023/10/06 02:37:02;;;;;;;0.38;0.38;;;;;;;16.17;100.00;101032.53;5071847;28;20064;-75
2023/10/06 02:39:33;;;;;;;0.30;0.30;;;;;;;16.17;100.00;101027.13;5055608;28;20471;-74
2023/10/06 02:42:13;;;;;;;0.30;0.30;;;;;;;16.17;100.00;101023.59;5039770;28;20126;-74
2023/10/06 02:44:40;;;;;;;0.30;0.30;;;;;;;16.17;100.00;101029.00;5071986;28;20029;-76
2023/10/06 02:47:09;;;;;;;0.30;0.30;;;;;;;16.17;100.00;101029.00;5039215;28;20040;-74
2023/10/06 02:49:47;;;;;;;0.30;0.30;;;;;;;16.17;100.00;101031.72;5055466;28;20033;-74
2023/10/06 02:52:15;;;;;;;0.30;0.30;;;;;;;16.15;100.00;101012.91;5056419;28;20461;-75
2023/10/06 02:54:58;;;;;;;0.40;0.40;;;;;;;16.16;100.00;101020.00;5039048;28;20433;-75
2023/10/06 02:57:26;;;;;;;0.30;0.30;;;;;;;16.16;100.00;101017.28;5041325;28;20101;-75
2023/10/06 02:59:56;;;;;;;0.30;0.30;;;;;;;16.16;100.00;101024.59;5055491;28;20056;-75
2023/10/06 03:02:25;;;;;;;0.30;0.30;;;;;;;16.17;100.00;101021.69;5056016;28;20044;-76
2023/10/06 03:05:10;;;;;;;0.30;0.30;;;;;;;16.16;100.00;101020.00;5055569;28;20467;-75
2023/10/06 03:07:38;;;;;;;0.30;0.30;;;;;;;16.17;100.00;101023.59;5057290;28;20036;-74
2023/10/06 03:10:08;;;;;;;0.20;0.20;;;;;;;16.18;100.00;101033.38;5071636;28;20047;-73
2023/10/06 03:12:39;;;;;;;0.30;0.30;;;;;;;16.17;100.00;101024.41;5023655;28;20047;-73
2023/10/06 03:15:27;;;;;;;0.30;0.30;;;;;;;16.17;100.00;101020.88;5055976;28;20040;-74
2023/10/06 03:17:53;;;;;;;0.30;0.30;;;;;;;16.16;100.00;101019.19;5057774;28;20044;-74
2023/10/06 03:20:22;;;;;;;0.20;0.20;;;;;;;16.13;100.00;101025.84;5038876;28;20483;-74
2023/10/06 03:22:58;;;;;;;0.28;0.28;;;;;;;16.16;100.00;101024.59;5055590;28;20044;-77
2023/10/06 03:25:28;;;;;;;0.30;0.30;;;;;;;16.17;100.00;101027.13;5058776;28;20035;-74
2023/10/06 03:28:04;;;;;;;0.30;0.30;;;;;;;16.17;100.00;101021.69;5042246;28;20081;-74
2023/10/06 03:30:41;;;;;;;0.30;0.30;;;;;;;16.17;100.00;101021.69;5057931;28;20029;-75
2023/10/06 03:33:12;;;;;;;0.22;0.22;;;;;;;16.16;100.00;101016.47;5025784;28;20039;-74
2023/10/06 03:35:48;;;;;;;0.20;0.20;;;;;;;16.16;100.00;101019.19;5075165;28;20056;-75
2023/10/06 03:41:07;;;;;;;0.30;0.30;;;;;;;16.21;100.00;101024.81;5058524;28;20119;-74
2023/10/06 03:46:11;;;;;;;0.30;0.30;;;;;;;16.20;100.00;101018.56;5058453;28;20051;-75
2023/10/06 03:48:39;;;;;;;0.30;0.30;;;;;;;16.21;100.00;101019.41;5042134;28;20132;-74
2023/10/06 03:51:07;;;;;;;0.30;0.30;;;;;;;16.21;100.00;101017.50;5058239;28;20039;-75
2023/10/06 03:53:33;;;;;;;0.30;0.30;;;;;;;16.23;100.00;101023.56;5041665;28;20036;-75
2023/10/06 03:55:59;;;;;;;0.20;0.20;;;;;;;16.22;100.00;101013.78;5058344;28;20028;-74
2023/10/06 03:58:28;;;;;;;0.30;0.30;;;;;;;16.19;100.00;101018.75;5058496;28;20036;-75
2023/10/06 04:00:54;;;;;;;0.30;0.30;;;;;;;16.21;100.00;101009.38;5058447;28;20037;-74
2023/10/06 04:03:23;;;;;;;0.20;0.20;;;;;;;16.23;100.00;101001.88;5041678;28;20365;-75
2023/10/06 04:05:50;;;;;;;0.20;0.20;;;;;;;16.24;100.00;101000.81;5057612;28;20044;-75
2023/10/06 04:08:23;;;;;;;0.30;0.30;;;;;;;16.26;100.00;101003.34;5057739;28;20020;-75
2023/10/06 04:10:51;;;;;;;0.30;0.30;;;;;;;16.27;100.00;101000.44;5058386;28;20040;-74
2023/10/06 04:13:20;;;;;;;0.20;0.20;;;;;;;16.29;100.00;100993.94;5041679;28;20359;-74
2023/10/06 04:15:51;;;;;;;0.20;0.20;;;;;;;16.26;100.00;100989.75;5073910;28;20047;-75
2023/10/06 04:18:24;;;;;;;0.20;0.20;;;;;;;16.30;100.00;101010.03;5041684;28;20028;-74
2023/10/06 04:20:51;;;;;;;0.20;0.20;;;;;;;16.31;100.00;100991.88;5041012;28;20062;-74
2023/10/06 04:23:18;;;;;;;0.30;0.30;;;;;;;16.33;100.00;101003.34;5041098;28;20028;-74
2023/10/06 04:25:45;;;;;;;0.30;0.30;;;;;;;16.30;100.00;100999.19;5074276;28;20036;-75
2023/10/06 04:28:14;;;;;;;0.30;0.30;;;;;;;16.32;100.00;101005.22;5040587;28;20105;-74
2023/10/06 04:30:44;;;;;;;0.30;0.30;;;;;;;16.30;100.00;100992.88;5041189;28;20040;-75
2023/10/06 04:33:10;;;;;;;0.30;0.30;;;;;;;16.31;100.00;100994.56;5041317;28;20032;-75
2023/10/06 04:35:40;;;;;;;0.20;0.20;;;;;;;16.31;100.00;100998.13;5040627;28;20509;-74
2023/10/06 04:38:12;;;;;;;0.22;0.22;;;;;;;16.30;100.00;100991.03;5041113;28;20032;-74
2023/10/06 04:40:41;;;;;;;0.30;0.30;;;;;;;16.29;100.00;100997.50;5041806;28;20463;-75
2023/10/06 04:43:07;;;;;;;0.20;0.20;;;;;;;16.28;100.00;100998.53;5040736;28;20098;-77
2023/10/06 04:45:33;;;;;;;0.40;0.40;;;;;;;16.27;100.00;100988.72;5057368;28;20036;-74
2023/10/06 04:48:00;;;;;;;0.30;0.30;;;;;;;16.26;100.00;100996.03;5056988;28;20437;-75
2023/10/06 04:50:31;;;;;;;0.30;0.30;;;;;;;16.25;100.00;100997.06;5040922;28;20135;-74
2023/10/06 04:52:58;;;;;;;0.30;0.30;;;;;;;16.23;100.00;100993.72;5057214;28;20028;-74
2023/10/06 04:55:26;;;;;;;0.38;0.38;;;;;;;16.23;100.00;101003.75;5057107;28;20101;-74
2023/10/06 04:57:55;;;;;;;0.30;0.30;;;;;;;16.22;100.00;101008.34;5057231;28;20040;-74
2023/10/06 05:00:21;;;;;;;0.30;0.30;;;;;;;16.22;100.00;101013.78;5056893;28;20028;-75
2023/10/06 05:02:50;;;;;;;0.20;0.20;;;;;;;16.21;100.00;101016.69;5024234;28;20044;-74
2023/10/06 05:05:20;;;;;;;0.30;0.30;;;;;;;16.24;100.00;101021.69;5073181;28;20029;-75
2023/10/06 05:07:55;;;;;;;0.20;0.20;;;;;;;16.22;100.00;101011.06;5039983;28;20036;-74
2023/10/06 05:10:21;;;;;;;0.30;0.30;;;;;;;16.26;100.00;101020.44;5036742;28;20536;-75
2023/10/06 05:12:53;;;;;;;0.30;0.30;;;;;;;16.27;100.00;101018.56;5056623;28;20078;-74
2023/10/06 05:15:26;;;;;;;0.30;0.30;;;;;;;16.27;100.00;101022.13;5040546;28;20036;-74
2023/10/06 05:17:55;;;;;;;0.30;0.30;;;;;;;16.26;100.00;101025.88;5042710;28;20048;-74
2023/10/06 05:20:29;;;;;;;0.20;0.20;;;;;;;16.30;100.00;101030.88;5073192;28;20467;-74
2023/10/06 05:22:58;;;;;;;;;;;;;;;16.29;100.00;101031.94;5041056;28;20044;-74
2023/10/06 05:25:29;;;;;;;0.30;0.30;;;;;;;16.30;100.00;101034.44;5073296;28;20386;-77
2023/10/06 05:27:59;;;;;;;;;;;;;;;16.32;100.00;101031.50;5073387;28;20035;-74
2023/10/06 05:30:31;;;;;;;0.30;0.30;;;;;;;16.30;100.00;101031.75;5056777;28;19920;-74
2023/10/06 05:33:00;;;;;;;0.30;0.30;;;;;;;16.31;100.00;101032.56;5039710;28;20028;-74
2023/10/06 05:35:29;;;;;;;0.30;0.30;;;;;;;16.32;100.00;101028.81;5057238;28;20029;-74
2023/10/06 05:37:55;;;;;;;0.28;0.28;;;;;;;16.31;100.00;101033.41;5056210;28;20399;-74
2023/10/06 05:40:21;;;;;;;0.20;0.20;;;;;;;16.33;100.00;101020.47;5039883;28;20029;-75
2023/10/06 05:42:50;;;;;;;0.20;0.20;;;;;;;16.34;100.00;101043.00;5056208;28;20032;-74
2023/10/06 05:45:20;;;;;;;0.20;0.20;;;;;;;16.35;100.00;101031.91;5039961;28;20067;-75
2023/10/06 05:47:54;;;;;;;0.22;0.22;;;;;;;16.34;100.00;101032.16;5071802;28;20032;-75
2023/10/06 05:50:27;;;;;;;0.30;0.30;;;;;;;16.37;100.00;101037.16;5056396;28;20048;-75
2023/10/06 05:53:04;;;;;;;0.30;0.30;;;;;;;16.35;100.00;101039.25;5072990;28;20475;-74
2023/10/06 05:55:31;;;;;;;0.20;0.20;;;;;;;16.36;100.00;101028.19;5072880;28;20024;-75
2023/10/06 05:58:00;;;;;;;0.30;0.30;;;;;;;16.36;100.00;101024.66;5056372;28;20127;-75
2023/10/06 06:00:29;;;;;;;0.30;0.30;;;;;;;16.36;100.00;101036.31;5055659;28;20394;-75
2023/10/06 06:02:59;;;;;;;0.20;0.20;;;;;;;16.34;100.00;101030.25;5072215;28;20097;-75
2023/10/06 06:05:33;;;;;;;0.20;0.20;;;;;;;16.36;100.00;101036.31;5056425;28;20482;-74
2023/10/06 06:08:00;;;;;;;0.30;0.30;;;;;;;16.36;100.00;101040.94;5072506;28;20020;-75
2023/10/06 06:10:29;;;;;;;0.30;0.30;;;;;;;16.35;100.00;101041.94;5056011;28;20060;-74
2023/10/06 06:12:56;;;;;;;0.30;0.30;;;;;;;16.33;100.00;101049.47;5073263;28;20036;-75
2023/10/06 06:15:21;;;;;;;0.30;0.30;;;;;;;16.32;100.00;101055.94;5055426;28;20067;-75
2023/10/06 06:17:47;;;;;;;0.30;0.30;;;;;;;16.31;100.00;101046.97;5039286;28;20040;-75
2023/10/06 06:20:18;;;;;;;0.30;0.30;;;;;;;16.29;100.00;101050.94;5039332;28;20116;-75
2023/10/06 06:22:53;;;;;;;0.30;0.30;;;;;;;16.33;100.00;101052.19;5056358;28;20040;-74
2023/10/06 06:25:22;;;;;;;0.25;0.25;;;;;;;16.32;100.00;101053.22;5072097;28;20029;-75
2023/10/06 06:27:49;;;;;;;0.20;0.20;;;;;;;16.29;100.00;101056.34;5038904;28;20379;-74
2023/10/06 06:30:20;;;;;;;0.30;0.30;;;;;;;16.27;100.00;101059.25;5055300;28;20036;-75
2023/10/06 06:32:48;;;;;;;0.30;0.30;;;;;;;16.26;100.00;101063.84;5071637;28;20091;-74
2023/10/06 06:35:19;;;;;;;0.30;0.30;;;;;;;16.27;100.00;101076.41;5054241;28;20033;-74
2023/10/06 06:37:51;;;;;;;0.30;0.30;;;;;;;16.29;100.00;101078.06;5038948;28;20040;-74
2023/10/06 06:40:20;;;;;;;0.40;0.40;;;;;;;16.30;100.00;101083.28;5054852;28;20029;-75
2023/10/06 06:42:48;;;;;;;0.30;0.30;;;;;;;16.30;100.00;101071.56;5038480;28;20083;-74
2023/10/06 06:45:14;;;;;;;0.20;0.20;;;;;;;16.31;100.00;101067.84;5055146;28;20032;-74
2023/10/06 06:47:41;;;;;;;0.30;0.30;;;;;;;16.22;100.00;101061.75;5055372;28;20081;-74
2023/10/06 06:50:09;;;;;;;0.30;0.30;;;;;;;16.29;100.00;101070.75;5038781;28;20467;-74
2023/10/06 06:52:36;;;;;;;0.40;0.40;;;;;;;16.31;100.00;101076.81;5055628;28;20036;-75
2023/10/06 06:55:02;;;;;;;0.20;0.20;;;;;;;16.31;100.00;101081.41;5055576;28;20033;-74
2023/10/06 06:57:27;;;;;;;0.30;0.30;;;;;;;16.32;100.00;101088.50;5072406;28;20029;-74
2023/10/06 06:59:55;;;;;;;0.40;0.40;;;;;;;16.29;100.00;101087.03;5059338;28;20040;-75
2023/10/06 07:02:21;;;;;;;0.30;0.30;;;;;;;16.30;100.00;101096.00;5059384;28;20021;-74
2023/10/06 07:04:47;;;;;;;0.20;0.20;;;;;;;16.32;100.00;101097.47;5059434;28;20032;-75
2023/10/06 07:07:13;;;;;;;0.30;0.30;;;;;;;16.31;100.00;101094.97;5042412;28;20529;-74
2023/10/06 07:09:39;;;;;;;0.30;0.30;;;;;;;16.29;100.00;101097.88;5059444;28;20051;-74
2023/10/06 07:12:10;;;;;;;0.30;0.30;;;;;;;16.31;100.00;101103.13;5042393;28;20390;-75
2023/10/06 07:14:36;;;;;;;0.30;0.30;;;;;;;16.30;100.00;101117.72;5058901;28;20039;-74
2023/10/06 07:17:08;;;;;;;0.30;0.30;;;;;;;16.28;100.00;101107.06;5042229;28;20029;-74
2023/10/06 07:19:33;;;;;;;0.30;0.30;;;;;;;16.26;100.00;101115.41;5042498;28;20039;-74
2023/10/06 07:22:00;;;;;;;0.30;0.30;;;;;;;16.29;100.00;101118.75;5074669;28;20024;-75
2023/10/06 07:24:26;;;;;;;0.30;0.30;;;;;;;16.30;100.00;101125.84;5025423;28;20150;-75
2023/10/06 07:26:52;;;;;;;0.30;0.30;;;;;;;16.30;100.00;101117.72;5058738;28;20111;-74
2023/10/06 07:29:22;;;;;;;0.30;0.30;;;;;;;16.31;100.00;101130.25;5058518;28;20036;-76
2023/10/06 07:31:49;;;;;;;0.30;0.30;;;;;;;16.34;100.00;101127.13;5042290;28;20115;-74
2023/10/06 07:34:15;;;;;;;0.30;0.30;;;;;;;16.38;100.00;101125.66;5058811;28;20045;-75
2023/10/06 07:36:42;;;;;;;0.30;0.30;;;;;;;16.47;100.00;101132.59;5041909;28;20035;-74
2023/10/06 07:39:08;;;;;;;0.30;0.30;;;;;;;16.50;100.00;101140.31;5042244;28;20039;-75
2023/10/06 07:41:36;;;;;;;0.30;0.30;;;;;;;16.53;100.00;101137.19;5058281;28;20467;-76
2023/10/06 07:44:05;;;;;;;0.30;0.30;;;;;;;16.42;100.00;101132.38;5058028;28;20482;-75
2023/10/06 07:46:33;;;;;;;0.30;0.30;;;;;;;16.45;100.00;101138.22;5058000;28;20059;-75
2023/10/06 07:49:02;;;;;;;0.35;0.35;;;;;;;16.45;100.00;101142.81;5040205;28;20460;-75
2023/10/06 07:51:33;;;;;;;0.30;0.30;;;;;;;16.45;100.00;101143.63;5058604;28;20054;-73
2023/10/06 07:54:00;;;;;;;0.30;0.30;;;;;;;16.46;100.00;101152.63;5041664;28;20089;-75
2023/10/06 07:56:26;;;;;;;0.30;0.30;;;;;;;16.49;100.00;101155.78;5058001;28;20040;-75
2023/10/06 07:58:53;;;;;;;0.30;0.30;;;;;;;16.50;100.00;101156.59;5074385;28;20486;-75
2023/10/06 08:01:27;;;;;;;0.30;0.30;;;;;;;16.50;100.00;101156.59;5058947;28;20044;-76
2023/10/06 08:03:53;;;;;;;0.30;0.30;;;;;;;16.53;100.00;101161.63;5041377;28;20072;-75
2023/10/06 08:06:20;;;;;;;0.30;0.30;;;;;;;16.55;100.00;101153.28;5041542;28;20056;-75
2023/10/06 08:08:48;;;;;;;0.30;0.30;;;;;;;16.55;100.00;101159.53;5072290;28;20048;-75
2023/10/06 08:11:14;;;;;;;0.30;0.30;;;;;;;16.61;100.00;101157.88;5056905;28;20455;-75
2023/10/06 08:13:42;;;;;;;0.30;0.30;;;;;;;16.64;100.00;101157.47;5074061;28;20033;-75
2023/10/06 08:16:07;;;;;;;0.30;0.30;;;;;;;16.65;100.00;101162.69;5057378;28;20383;-76
2023/10/06 08:18:36;;;;;;;0.30;0.30;;;;;;;16.67;100.00;101167.91;5057404;28;20040;-75
2023/10/06 08:21:02;;;;;;;0.30;0.30;;;;;;;16.66;100.00;101172.50;5052708;28;20123;-73
2023/10/06 08:23:29;;;;;;;0.30;0.30;;;;;;;16.64;100.00;101163.72;5056514;28;20034;-73
2023/10/06 08:25:56;;;;;;;0.30;0.30;;;;;;;16.65;100.00;101170.84;5073348;28;20036;-72
2023/10/06 08:28:26;;;;;;;0.30;0.30;;;;;;;16.76;100.00;101174.81;5071612;28;20021;-72
2023/10/06 08:30:52;;;;;;;0.30;0.30;;;;;;;16.82;100.00;101178.63;5073290;28;20024;-72
2023/10/06 08:33:18;;;;;;;0.30;0.30;;;;;;;16.86;100.00;101185.31;5040537;28;20032;-72
2023/10/06 08:35:44;;;;;;;0.40;0.40;;;;;;;16.81;100.00;101179.69;5040647;28;20033;-72
2023/10/06 08:38:10;;;;;;;0.30;0.30;;;;;;;16.76;100.00;101182.13;5073621;28;20494;-72
2023/10/06 08:40:41;;;;;;;0.30;0.30;;;;;;;16.74;100.00;101189.66;5040523;28;20036;-72
2023/10/06 08:43:08;;;;;;;0.30;0.30;;;;;;;16.70;100.00;101183.81;5073827;28;20028;-72
2023/10/06 08:45:44;;;;;;;0.30;0.30;;;;;;;16.70;100.00;101190.06;5024741;28;20106;-73
2023/10/06 08:48:10;;;;;;;0.30;0.30;;;;;;;16.78;100.00;101196.38;5057718;28;20025;-73
2023/10/06 08:50:37;;;;;;;0.30;0.30;;;;;;;16.90;100.00;101198.25;5057489;28;20020;-72
2023/10/06 08:53:05;;;;;;;0.20;0.20;;;;;;;16.84;100.00;101192.84;5040870;28;20036;-72
2023/10/06 08:55:32;;;;;;;0.30;0.30;;;;;;;16.68;100.00;101189.44;5055665;28;20036;-72
2023/10/06 08:57:58;;;;;;;0.30;0.30;;;;;;;16.69;100.00;101209.25;5040436;28;20080;-72
2023/10/06 09:00:24;;;;;;;0.30;0.30;;;;;;;16.69;100.00;101211.97;5057000;28;20447;-72
2023/10/06 09:02:54;;;;;;;0.20;0.20;;;;;;;16.69;100.00;101211.97;5040721;28;20036;-72
2023/10/06 09:05:23;;;;;;;0.30;0.30;;;;;;;16.69;100.00;101210.09;5056755;28;20124;-74
2023/10/06 09:08:07;;;;;;;0.25;0.25;;;;;;;16.67;100.00;101206.78;5056614;28;20029;-71
2023/10/06 09:10:48;;;;;;;0.20;0.20;;;;;;;16.67;100.00;101208.63;5040549;28;20028;-74
2023/10/06 09:13:17;;;;;;;0.30;0.30;;;;;;;16.71;100.00;101212.63;5057805;28;20032;-74
2023/10/06 09:16:08;;;;;;;0.30;0.30;;;;;;;16.76;100.00;101215.56;5057317;28;20036;-73
2023/10/06 09:18:35;;;;;;;0.30;0.30;;;;;;;16.78;100.00;101216.22;5057184;28;20463;-74
2023/10/06 09:21:12;;;;;;;0.30;0.30;;;;;;;16.83;100.00;101210.16;5040371;28;20028;-73
2023/10/06 09:23:40;;;;;;;0.28;0.28;;;;;;;16.86;100.00;101209.78;5040298;28;20029;-73
2023/10/06 09:26:08;;;;;;;0.25;0.25;;;;;;;16.89;100.00;101215.63;5056854;28;20024;-73
2023/10/06 09:28:36;;;;;;;0.22;0.22;;;;;;;16.88;100.00;101202.22;5056489;28;20040;-73
2023/10/06 09:31:05;;;;;;;0.30;0.30;;;;;;;16.90;100.00;101208.28;5056913;28;20036;-73
2023/10/06 09:33:37;;;;;;;0.30;0.30;;;;;;;16.88;100.00;101205.81;5056611;28;20040;-73
2023/10/06 09:36:08;;;;;;;0.30;0.30;;;;;;;16.98;100.00;101213.53;5056629;28;20044;-73
2023/10/06 09:38:38;;;;;;;0.30;0.30;;;;;;;16.98;100.00;101215.41;5039961;28;20037;-73
2023/10/06 09:41:07;;;;;;;0.30;0.30;;;;;;;16.89;100.00;101209.34;5073310;28;20110;-73
2023/10/06 09:43:35;;;;;;;0.30;0.30;;;;;;;16.88;100.00;101213.94;5073085;28;20472;-73
2023/10/06 09:46:07;;;;;;;0.30;0.30;;;;;;;16.87;100.00;101208.72;5056258;28;20131;-73
2023/10/06 09:48:36;;;;;;;0.30;0.30;;;;;;;16.86;100.00;101209.78;5072564;28;20512;-73
2023/10/06 09:51:10;;;;;;;0.30;0.30;;;;;;;16.80;100.00;101210.56;5056456;28;20032;-73
2023/10/06 09:53:40;;;;;;;0.30;0.30;;;;;;;16.89;100.00;101209.34;5040500;28;20032;-73
2023/10/06 09:56:08;;;;;;;0.30;0.30;;;;;;;17.00;100.00;101211.44;5072735;28;20040;-73
2023/10/06 09:58:35;;;;;;;0.40;0.40;;;;;;;17.05;100.00;101211.66;5072714;28;20471;-74
2023/10/06 10:01:02;;;;;;;0.30;0.30;;;;;;;17.13;100.00;101205.19;5056248;28;20056;-73
2023/10/06 10:03:28;;;;;;;0.30;0.30;;;;;;;17.12;100.00;101209.81;5056362;28;20059;-73
2023/10/06 10:05:56;;;;;;;0.30;0.30;;;;;;;17.10;100.00;101214.59;5055970;28;20448;-73
2023/10/06 10:08:22;;;;;;;0.30;0.30;;;;;;;17.12;100.00;101214.38;5055876;28;20487;-73
2023/10/06 10:10:52;;;;;;;0.35;0.35;;;;;;;17.19;100.00;101214.41;5023239;28;20064;-73
2023/10/06 10:13:36;;;;;;;0.30;0.30;;;;;;;17.32;100.00;101217.13;5056093;28;20037;-73
2023/10/06 10:16:34;;;;;;;0.30;0.30;;;;;;;17.55;100.00;101219.41;5055912;28;20032;-73
2023/10/06 10:19:11;;;;;;;0.40;0.40;;;;;;;17.76;100.00;101216.44;5055855;28;20083;-73
2023/10/06 10:21:37;;;;;;;0.30;0.30;;;;;;;17.82;100.00;101222.94;5056159;28;20028;-73
2023/10/06 10:24:06;;;;;;;0.30;0.30;;;;;;;17.83;100.00;101215.63;5039304;28;20093;-73
2023/10/06 10:26:35;;;;;;;0.30;0.30;;;;;;;17.76;100.00;101221.06;5039204;28;20055;-73
2023/10/06 10:29:13;;;;;;;0.30;0.30;;;;;;;17.72;100.00;101222.50;5071971;28;20040;-74
2023/10/06 10:31:44;;;;;;;0.30;0.30;;;;;;;17.66;100.00;101215.22;5055920;28;20036;-73
2023/10/06 10:34:23;;;;;;;0.40;0.40;;;;;;;17.54;100.00;101215.88;5078439;28;20498;-73
2023/10/06 10:37:12;;;;;;;0.30;0.30;;;;;;;17.66;100.00;101216.03;5063291;28;20490;-73
2023/10/06 10:39:41;;;;;;;0.30;0.30;;;;;;;17.86;100.00;101210.59;5062466;28;20060;-73
2023/10/06 10:42:08;;;;;;;0.30;0.30;;;;;;;18.23;100.00;101208.16;5062433;28;20025;-73
2023/10/06 10:44:35;;;;;;;0.38;0.38;;;;;;;18.29;100.00;101214.66;5062505;28;20032;-73
2023/10/06 10:47:03;;;;;;;0.30;0.30;;;;;;;18.30;100.00;101216.31;5045621;28;20036;-73
2023/10/06 10:49:32;;;;;;;0.30;0.30;;;;;;;18.10;100.00;101219.97;5062419;28;20128;-74
2023/10/06 10:52:05;;;;;;;0.30;0.30;;;;;;;17.96;100.00;101219.13;5046253;28;20020;-73
2023/10/06 10:54:33;;;;;;;0.30;0.30;;;;;;;17.92;100.00;101220.63;5062340;28;20482;-73
2023/10/06 10:57:11;;;;;;;0.30;0.30;;;;;;;17.92;100.00;101220.63;5061970;28;20453;-73
2023/10/06 11:00:00;;;;;;;0.30;0.30;;;;;;;17.94;100.00;101220.41;5078545;28;20044;-73
2023/10/06 11:02:35;;;;;;;0.30;0.30;;;;;;;17.95;100.00;101228.34;5078590;28;20028;-73
2023/10/06 11:05:01;;;;;;;0.40;0.40;;;;;;;18.07;100.00;101219.53;5045594;28;20467;-73
2023/10/06 11:07:27;;;;;;;0.20;0.20;;;;;;;18.11;100.00;101215.34;5078346;28;20494;-73
2023/10/06 11:09:52;;;;;;;0.20;0.20;;;;;;;18.12;100.00;101222.44;5045476;28;20040;-73
2023/10/06 11:12:21;;;;;;;0.40;0.40;;;;;;;18.16;100.00;101215.53;5045626;28;20098;-73
2023/10/06 11:14:51;;;;;;;0.20;0.20;;;;;;;18.25;100.00;101222.41;5062173;28;20059;-73
2023/10/06 11:17:32;;;;;;;0.30;0.30;;;;;;;18.44;100.00;101218.78;5062164;28;20032;-73
2023/10/06 11:20:12;;;;;;;0.35;0.35;;;;;;;18.62;100.00;101225.38;5062079;28;20034;-74
2023/10/06 11:22:57;;;;;;;0.20;0.20;;;;;;;18.63;100.00;101224.34;5062946;28;20487;-73
2023/10/06 11:25:27;;;;;;;0.30;0.30;;;;;;;18.65;100.00;101214.88;5062220;28;20113;-73
2023/10/06 11:28:08;;;;;;;0.30;0.30;;;;;;;18.81;100.00;101212.72;5045666;28;20076;-73
2023/10/06 11:30:36;;;;;;;0.30;0.30;;;;;;;19.05;100.00;101219.25;5078590;28;20032;-74
2023/10/06 11:33:04;;;;;;;0.30;0.30;;;;;;;19.07;100.00;101222.59;5061512;28;20119;-73
2023/10/06 11:35:40;;;;;;;0.30;0.30;;;;;;;18.98;100.00;101224.78;5061972;28;20059;-74